createdAt,value
2022-08-09T00:00:06.411Z,101900.84
2022-08-09T00:00:33.984Z,101903.31
2022-08-09T00:00:55.641Z,101904.28
2022-08-09T00:01:17.448Z,101903.41
2022-08-09T00:01:52.747Z,101907.00
2022-08-09T00:02:18.103Z,101906.13
2022-08-09T00:02:48.994Z,101907.22
2022-08-09T00:04:06.322Z,101908.41
2022-08-09T00:04:08.557Z,101911.78
2022-08-09T00:04:36.605Z,101911.13
2022-08-09T00:05:03.390Z,101908.50
2022-08-09T00:06:19.383Z,101906.88
2022-08-09T00:06:23.475Z,101914.25
2022-08-09T00:06:45.450Z,101903.63
2022-08-09T00:07:07.632Z,101915.34
2022-08-09T00:07:44.703Z,101908.03
2022-08-09T00:08:09.996Z,101905.66
2022-08-09T00:08:33.238Z,101905.47
2022-08-09T00:08:57.063Z,101878.50
2022-08-09T00:09:20.937Z,101904.38
2022-08-09T00:09:42.855Z,101904.38
2022-08-09T00:10:06.525Z,101910.75
2022-08-09T00:10:33.393Z,101904.50
2022-08-09T00:10:58.429Z,101904.50
2022-08-09T00:11:24.466Z,101902.63
2022-08-09T00:12:03.588Z,101903.63
2022-08-09T00:12:26.326Z,101883.72
2022-08-09T00:12:57.182Z,101901.66
2022-08-09T00:13:19.809Z,101897.41
2022-08-09T00:13:41.630Z,101912.41
2022-08-09T00:14:03.828Z,101900.78
2022-08-09T00:15:14.675Z,101902.84
2022-08-09T00:15:59.339Z,101904.78
2022-08-09T00:16:26.568Z,101903.25
2022-08-09T00:16:59.291Z,101902.50
2022-08-09T00:18:05.036Z,101896.28
2022-08-09T00:18:05.861Z,101898.91
2022-08-09T00:18:35.943Z,101893.59
2022-08-09T00:18:58.245Z,101905.41
2022-08-09T00:19:20.097Z,101895.44
2022-08-09T00:19:41.761Z,101889.13
2022-08-09T00:20:12.240Z,101886.72
2022-08-09T00:20:34.233Z,101894.00
2022-08-09T00:20:55.998Z,101893.69
2022-08-09T00:21:17.765Z,101905.53
2022-08-09T00:21:43.158Z,101895.56
2022-08-09T00:22:19.564Z,101900.19
2022-08-09T00:22:41.515Z,101898.66
2022-08-09T00:23:07.834Z,101900.19
2022-08-09T00:23:57.368Z,101899.31
2022-08-09T00:24:21.849Z,101899.31
2022-08-09T00:24:45.905Z,101888.47
2022-08-09T00:25:10.185Z,101895.72
2022-08-09T00:25:35.462Z,101884.16
2022-08-09T00:25:57.169Z,101902.25
2022-08-09T00:26:19.391Z,101904.97
2022-08-09T00:26:51.543Z,101902.25
2022-08-09T00:27:15.293Z,101896.81
2022-08-09T00:27:43.056Z,101899.22
2022-08-09T00:28:06.633Z,101892.16
2022-08-09T00:28:28.312Z,101805.75
2022-08-09T00:28:52.595Z,101897.94
2022-08-09T00:30:16.468Z,101890.66
2022-08-09T00:30:24.882Z,101897.81
2022-08-09T00:30:40.512Z,101887.09
2022-08-09T00:31:50.639Z,101886.31
2022-08-09T00:31:57.540Z,101889.59
2022-08-09T00:32:22.733Z,101886.97
2022-08-09T00:32:48.736Z,101893.19
2022-08-09T00:33:12.620Z,101872.13
2022-08-09T00:33:51.274Z,101893.19
2022-08-09T00:34:13.549Z,101889.59
2022-08-09T00:34:35.243Z,101897.72
2022-08-09T00:34:58.751Z,101894.69
2022-08-09T00:35:20.517Z,101893.72
2022-08-09T00:35:43.786Z,101892.00
2022-08-09T00:36:05.846Z,101887.66
2022-08-09T00:36:30.826Z,101886.00
2022-08-09T00:36:53.568Z,101886.78
2022-08-09T00:37:15.276Z,101886.88
2022-08-09T00:37:36.921Z,101889.59
2022-08-09T00:37:58.663Z,101886.97
2022-08-09T00:38:21.598Z,101886.97
2022-08-09T00:38:43.859Z,101886.97
2022-08-09T00:39:16.879Z,101885.13
2022-08-09T00:40:09.028Z,101884.38
2022-08-09T00:40:31.876Z,101889.81
2022-08-09T00:40:53.792Z,101882.53
2022-08-09T00:44:09.986Z,101883.53
2022-08-09T00:44:10.202Z,101885.34
2022-08-09T00:44:13.563Z,101887.19
2022-08-09T00:44:15.388Z,101894.16
2022-08-09T00:44:15.598Z,101887.94
2022-08-09T00:44:47.615Z,101888.72
2022-08-09T00:45:15.835Z,101886.22
2022-08-09T00:45:38.039Z,101901.72
2022-08-09T00:46:28.525Z,101888.06
2022-08-09T00:47:04.458Z,101887.19
2022-08-09T00:47:28.361Z,101890.97
2022-08-09T00:47:57.777Z,101892.94
2022-08-09T00:48:21.193Z,101889.34
2022-08-09T00:48:49.374Z,101903.88
2022-08-09T00:49:12.252Z,101899.72
2022-08-09T00:49:36.622Z,101898.84
2022-08-09T00:49:58.782Z,101897.13
2022-08-09T00:50:20.497Z,101895.47
2022-08-09T00:50:46.356Z,101880.78
2022-08-09T00:51:16.409Z,101893.88
2022-08-09T00:51:42.669Z,101898.28
2022-08-09T00:52:17.973Z,101899.28
2022-08-09T00:52:39.786Z,101910.13
2022-08-09T00:53:08.867Z,101900.25
2022-08-09T00:53:32.499Z,101893.09
2022-08-09T00:53:58.915Z,101894.81
2022-08-09T00:54:22.641Z,101896.56
2022-08-09T00:54:53.605Z,101899.28
2022-08-09T00:55:16.766Z,101902.84
2022-08-09T00:56:04.475Z,101902.97
2022-08-09T00:56:31.097Z,101902.97
2022-08-09T00:56:52.706Z,101903.06
2022-08-09T00:57:24.756Z,101904.72
2022-08-09T00:57:59.368Z,101903.84
2022-08-09T00:58:25.405Z,101893.28
2022-08-09T00:58:51.495Z,101901.22
2022-08-09T00:59:15.672Z,101907.59
2022-08-09T00:59:53.605Z,101887.88
2022-08-09T01:00:21.803Z,101895.41
2022-08-09T01:00:44.910Z,101885.06
2022-08-09T01:01:16.527Z,101905.47
2022-08-09T01:01:44.913Z,101907.97
2022-08-09T01:02:07.402Z,101906.03
2022-08-09T01:02:31.124Z,101907.88
2022-08-09T01:03:04.276Z,101913.38
2022-08-09T01:03:40.686Z,101911.78
2022-08-09T01:04:16.809Z,101891.66
2022-08-09T01:04:49.851Z,101905.47
2022-08-09T01:05:22.231Z,101893.41
2022-08-09T01:05:53.444Z,101907.63
2022-08-09T01:06:25.534Z,101903.06
2022-08-09T01:07:13.829Z,101900.75
2022-08-09T01:08:00.017Z,101906.66
2022-08-09T01:08:34.835Z,101810.09
2022-08-09T01:09:09.609Z,101911.84
2022-08-09T01:09:40.094Z,101910.69
2022-08-09T01:10:09.273Z,101908.84
2022-08-09T01:10:37.211Z,101901.78
2022-08-09T01:11:17.826Z,101910.03
2022-08-09T01:11:53.244Z,101906.44
2022-08-09T01:12:33.489Z,101910.03
2022-08-09T01:13:03.685Z,101911.78
2022-08-09T01:13:41.999Z,101907.22
2022-08-09T01:14:23.934Z,101911.84
2022-08-09T01:14:53.096Z,101902.41
2022-08-09T01:15:19.148Z,101912.94
2022-08-09T01:15:51.698Z,101915.66
2022-08-09T01:16:20.708Z,101913.81
2022-08-09T01:16:49.502Z,101885.97
2022-08-09T01:17:19.270Z,101906.75
2022-08-09T01:17:46.978Z,101906.75
2022-08-09T01:18:14.427Z,101911.41
2022-08-09T01:18:38.931Z,101914.22
2022-08-09T01:19:08.123Z,101908.69
2022-08-09T01:20:01.481Z,101903.69
2022-08-09T01:20:35.877Z,101915.19
2022-08-09T01:21:11.544Z,101907.03
2022-08-09T01:21:50.879Z,101912.56
2022-08-09T01:22:40.955Z,101907.25
2022-08-09T01:24:02.107Z,101904.06
2022-08-09T01:24:17.580Z,101907.44
2022-08-09T01:24:52.210Z,101907.56
2022-08-09T01:25:24.795Z,101895.38
2022-08-09T01:26:03.402Z,101907.94
2022-08-09T01:26:53.977Z,101913.38
2022-08-09T01:27:20.838Z,101897.31
2022-08-09T01:27:45.265Z,101901.00
2022-08-09T01:28:14.642Z,101910.97
2022-08-09T01:28:42.176Z,101888.31
2022-08-09T01:29:09.032Z,101907.59
2022-08-09T01:29:41.277Z,101900.31
2022-08-09T01:30:28.673Z,101912.00
2022-08-09T01:31:02.167Z,101905.63
2022-08-09T01:32:31.997Z,101907.59
2022-08-09T01:32:43.966Z,101913.09
2022-08-09T01:32:59.996Z,101908.72
2022-08-09T01:33:25.759Z,101915.16
2022-08-09T01:33:49.159Z,101910.56
2022-08-09T01:34:16.975Z,101914.28
2022-08-09T01:34:44.687Z,101893.94
2022-08-09T01:35:28.790Z,101913.41
2022-08-09T01:36:03.255Z,101915.22
2022-08-09T01:36:28.529Z,101912.53
2022-08-09T01:36:51.528Z,101908.84
2022-08-09T01:37:16.550Z,101913.47
2022-08-09T01:38:07.987Z,101902.88
2022-08-09T01:38:30.355Z,101902.00
2022-08-09T01:38:53.801Z,101905.56
2022-08-09T01:39:17.660Z,101904.78
2022-08-09T01:39:41.380Z,101913.78
2022-08-09T01:40:07.353Z,101901.13
2022-08-09T01:40:31.934Z,101902.88
2022-08-09T01:41:05.413Z,101905.56
2022-08-09T01:41:30.161Z,101905.56
2022-08-09T01:42:01.395Z,101894.16
2022-08-09T01:42:27.244Z,101903.91
2022-08-09T01:42:51.620Z,101898.03
2022-08-09T01:43:14.646Z,101896.88
2022-08-09T01:43:50.681Z,101897.63
2022-08-09T01:44:16.519Z,101898.78
2022-08-09T01:44:42.179Z,101906.63
2022-08-09T01:45:05.746Z,101906.63
2022-08-09T01:45:31.252Z,101906.63
2022-08-09T01:45:54.363Z,101905.75
2022-08-09T01:46:24.938Z,101899.56
2022-08-09T01:46:51.371Z,101903.25
2022-08-09T01:47:17.527Z,101885.59
2022-08-09T01:47:44.902Z,101906.91
2022-08-09T01:48:12.706Z,101898.03
2022-08-09T01:48:39.640Z,101909.63
2022-08-09T01:49:10.078Z,101899.00
2022-08-09T01:49:38.791Z,101904.28
2022-08-09T01:50:06.568Z,101902.59
2022-08-09T01:50:37.175Z,101907.13
2022-08-09T01:51:04.051Z,101901.72
2022-08-09T01:51:27.980Z,101899.88
2022-08-09T01:51:57.769Z,101901.84
2022-08-09T01:52:20.659Z,101907.25
2022-08-09T01:52:43.737Z,101878.06
2022-08-09T01:53:19.395Z,101894.72
2022-08-09T01:53:44.421Z,101894.72
2022-08-09T01:54:13.737Z,101902.94
2022-08-09T01:54:40.812Z,101901.28
2022-08-09T01:55:03.988Z,101896.63
2022-08-09T01:55:28.524Z,101901.19
2022-08-09T01:55:56.222Z,101896.72
2022-08-09T01:56:19.414Z,101904.97
2022-08-09T01:56:51.365Z,101900.31
2022-08-09T01:57:20.416Z,101899.56
2022-08-09T01:57:46.231Z,101894.03
2022-08-09T01:58:17.015Z,101900.31
2022-08-09T01:58:40.181Z,101903.97
2022-08-09T01:59:06.179Z,101904.97
2022-08-09T01:59:32.491Z,101899.44
2022-08-09T02:00:00.177Z,101907.69
2022-08-09T02:00:36.244Z,101901.28
2022-08-09T02:01:00.156Z,101901.38
2022-08-09T02:01:58.000Z,101903.03
2022-08-09T02:02:08.154Z,101904.84
2022-08-09T02:02:33.174Z,101899.44
2022-08-09T02:02:58.107Z,101903.09
2022-08-09T02:03:21.537Z,101901.28
2022-08-09T02:03:46.058Z,101899.44
2022-08-09T02:04:10.611Z,101901.19
2022-08-09T02:04:34.638Z,101901.28
2022-08-09T02:05:04.058Z,101900.41
2022-08-09T02:05:38.043Z,101903.03
2022-08-09T02:06:11.869Z,101899.34
2022-08-09T02:06:58.578Z,101898.56
2022-08-09T02:08:39.193Z,101896.28
2022-08-09T02:08:41.403Z,101902.16
2022-08-09T02:08:58.525Z,101905.94
2022-08-09T02:09:23.650Z,101902.34
2022-08-09T02:09:59.444Z,101903.31
2022-08-09T02:10:30.162Z,101907.84
2022-08-09T02:10:54.039Z,101878.16
2022-08-09T02:11:17.615Z,101897.03
2022-08-09T02:11:42.659Z,101901.38
2022-08-09T02:12:08.148Z,101903.22
2022-08-09T02:12:33.472Z,101898.78
2022-08-09T02:12:58.281Z,101902.34
2022-08-09T02:13:26.036Z,101903.97
2022-08-09T02:14:07.259Z,101908.44
2022-08-09T02:14:31.371Z,101905.72
2022-08-09T02:14:56.144Z,101905.81
2022-08-09T02:15:19.910Z,101909.41
2022-08-09T02:15:50.716Z,101898.78
2022-08-09T02:16:13.892Z,101899.72
2022-08-09T02:16:53.297Z,101904.97
2022-08-09T02:18:01.595Z,101901.47
2022-08-09T02:18:10.407Z,101903.31
2022-08-09T02:18:35.060Z,101901.47
2022-08-09T02:18:58.839Z,101892.47
2022-08-09T02:19:21.173Z,101902.16
2022-08-09T02:19:44.312Z,101898.56
2022-08-09T02:20:08.655Z,101897.81
2022-08-09T02:20:34.189Z,101895.97
2022-08-09T02:21:02.958Z,101904.75
2022-08-09T02:21:26.321Z,101904.69
2022-08-09T02:21:55.708Z,101905.56
2022-08-09T02:22:31.471Z,101901.84
2022-08-09T02:23:03.520Z,101906.41
2022-08-09T02:23:39.599Z,101902.84
2022-08-09T02:24:06.052Z,101904.75
2022-08-09T02:24:35.389Z,101903.03
2022-08-09T02:25:01.735Z,101902.16
2022-08-09T02:25:27.441Z,101898.56
2022-08-09T02:25:55.895Z,101899.56
2022-08-09T02:26:25.314Z,101897.69
2022-08-09T02:26:52.559Z,101903.97
2022-08-09T02:27:18.576Z,101897.59
2022-08-09T02:28:00.550Z,101903.81
2022-08-09T02:28:31.888Z,101904.69
2022-08-09T02:28:56.257Z,101896.44
2022-08-09T02:29:22.673Z,101906.31
2022-08-09T02:29:48.571Z,101905.38
2022-08-09T02:30:12.136Z,101900.97
2022-08-09T02:30:41.730Z,101894.91
2022-08-09T02:31:06.216Z,101906.41
2022-08-09T02:31:34.045Z,101900.22
2022-08-09T02:32:01.145Z,101902.72
2022-08-09T02:32:26.838Z,101900.88
2022-08-09T02:32:52.540Z,101905.28
2022-08-09T02:33:18.551Z,101907.00
2022-08-09T02:34:06.812Z,101904.41
2022-08-09T02:34:40.660Z,101908.97
2022-08-09T02:35:17.472Z,101907.78
2022-08-09T02:36:02.710Z,101907.88
2022-08-09T02:36:31.396Z,101906.16
2022-08-09T02:36:55.168Z,101899.97
2022-08-09T02:37:31.423Z,101901.09
2022-08-09T02:37:59.094Z,101907.38
2022-08-09T02:38:28.920Z,101903.69
2022-08-09T02:38:55.618Z,101902.94
2022-08-09T02:39:39.754Z,101903.81
2022-08-09T02:40:10.389Z,101900.13
2022-08-09T02:40:36.531Z,101898.38
2022-08-09T02:41:03.220Z,101902.06
2022-08-09T02:41:28.879Z,101898.78
2022-08-09T02:41:54.454Z,101900.41
2022-08-09T02:42:24.767Z,101903.09
2022-08-09T02:42:51.181Z,101906.81
2022-08-09T02:43:13.733Z,101904.19
2022-08-09T02:43:42.535Z,101900.50
2022-08-09T02:44:29.050Z,101905.06
2022-08-09T02:44:57.027Z,101903.22
2022-08-09T02:45:28.836Z,101898.56
2022-08-09T02:45:53.941Z,101907.69
2022-08-09T02:46:17.707Z,101906.81
2022-08-09T02:46:41.040Z,101902.44
2022-08-09T02:47:05.302Z,101895.09
2022-08-09T02:47:34.000Z,101903.31
2022-08-09T02:48:19.518Z,101898.97
2022-08-09T02:48:57.650Z,101895.47
2022-08-09T02:49:20.375Z,101900.81
2022-08-09T02:50:06.137Z,101898.97
2022-08-09T02:50:34.310Z,101902.44
2022-08-09T02:50:58.843Z,101898.84
2022-08-09T02:51:26.399Z,101886.78
2022-08-09T02:51:53.665Z,101904.41
2022-08-09T02:52:18.324Z,101890.84
2022-08-09T02:52:44.254Z,101900.81
2022-08-09T02:53:25.797Z,101900.03
2022-08-09T02:54:00.395Z,101896.44
2022-08-09T02:54:25.674Z,101902.81
2022-08-09T02:54:54.537Z,101897.59
2022-08-09T02:55:20.650Z,101899.53
2022-08-09T02:55:57.261Z,101896.81
2022-08-09T02:56:22.885Z,101894.03
2022-08-09T02:56:51.177Z,101898.47
2022-08-09T02:57:23.649Z,101894.91
2022-08-09T02:58:00.201Z,101897.59
2022-08-09T02:58:36.876Z,101895.00
2022-08-09T02:59:03.347Z,101894.13
2022-08-09T02:59:36.111Z,101895.00
2022-08-09T03:00:21.117Z,101891.22
2022-08-09T03:00:57.575Z,101893.16
2022-08-09T03:01:22.040Z,101890.44
2022-08-09T03:02:06.378Z,101891.31
2022-08-09T03:02:31.567Z,101887.00
2022-08-09T03:02:58.679Z,101890.66
2022-08-09T03:04:12.530Z,101896.94
2022-08-09T03:04:17.414Z,101890.66
2022-08-09T03:04:43.189Z,101898.69
2022-08-09T03:05:08.054Z,101898.78
2022-08-09T03:05:41.196Z,101896.06
2022-08-09T03:06:06.101Z,101878.47
2022-08-09T03:06:30.546Z,101897.81
2022-08-09T03:06:53.169Z,101900.41
2022-08-09T03:07:17.515Z,101897.59
2022-08-09T03:07:40.494Z,101899.34
2022-08-09T03:08:18.297Z,101898.28
2022-08-09T03:08:45.420Z,101895.69
2022-08-09T03:09:08.572Z,101900.31
2022-08-09T03:09:33.641Z,101900.41
2022-08-09T03:10:00.524Z,101899.53
2022-08-09T03:10:26.489Z,101902.34
2022-08-09T03:10:51.065Z,101904.19
2022-08-09T03:11:15.013Z,101899.81
2022-08-09T03:12:05.562Z,101897.13
2022-08-09T03:12:29.812Z,101907.28
2022-08-09T03:12:54.677Z,101902.72
2022-08-09T03:13:21.167Z,101907.28
2022-08-09T03:13:59.396Z,101902.72
2022-08-09T03:14:28.071Z,101903.78
2022-08-09T03:14:51.601Z,101892.28
2022-08-09T03:15:15.032Z,101905.53
2022-08-09T03:15:40.453Z,101897.41
2022-08-09T03:16:20.814Z,101904.56
2022-08-09T03:16:45.064Z,101912.69
2022-08-09T03:17:16.550Z,101909.19
2022-08-09T03:17:44.094Z,101902.81
2022-08-09T03:18:09.767Z,101908.34
2022-08-09T03:18:35.437Z,101907.47
2022-08-09T03:19:02.040Z,101901.06
2022-08-09T03:19:52.795Z,101907.19
2022-08-09T03:20:11.590Z,101909.69
2022-08-09T03:20:33.927Z,101903.41
2022-08-09T03:20:56.652Z,101902.53
2022-08-09T03:21:20.334Z,101899.94
2022-08-09T03:21:51.748Z,101902.72
2022-08-09T03:22:24.895Z,101891.59
2022-08-09T03:22:56.863Z,101893.16
2022-08-09T03:23:24.247Z,101905.34
2022-08-09T03:23:58.652Z,101894.91
2022-08-09T03:24:42.189Z,101908.44
2022-08-09T03:25:57.748Z,101903.97
2022-08-09T03:25:58.957Z,101907.66
2022-08-09T03:26:31.947Z,101906.59
2022-08-09T03:26:54.598Z,101914.59
2022-08-09T03:27:17.184Z,101909.97
2022-08-09T03:27:48.000Z,101907.28
2022-08-09T03:28:12.990Z,101902.06
2022-08-09T03:28:37.979Z,101905.72
2022-08-09T03:29:13.411Z,101906.59
2022-08-09T03:29:58.026Z,101907.47
2022-08-09T03:30:29.508Z,101904.94
2022-08-09T03:30:55.674Z,101909.47
2022-08-09T03:31:22.600Z,101885.91
2022-08-09T03:31:59.530Z,101905.06
2022-08-09T03:32:24.281Z,101906.00
2022-08-09T03:32:49.722Z,101905.06
2022-08-09T03:33:19.179Z,101909.69
2022-08-09T03:33:54.963Z,101895.47
2022-08-09T03:34:18.530Z,101913.47
2022-08-09T03:34:41.474Z,101909.00
2022-08-09T03:35:24.136Z,101915.28
2022-08-09T03:36:13.003Z,101908.22
2022-08-09T03:36:31.178Z,101912.47
2022-08-09T03:36:59.803Z,101909.75
2022-08-09T03:37:55.422Z,101905.22
2022-08-09T03:38:06.916Z,101901.56
2022-08-09T03:38:42.176Z,101902.44
2022-08-09T03:39:05.137Z,101903.41
2022-08-09T03:39:37.670Z,101904.47
2022-08-09T03:40:01.075Z,101900.00
2022-08-09T03:40:31.097Z,101900.31
2022-08-09T03:40:53.162Z,101908.31
2022-08-09T03:41:16.718Z,101896.63
2022-08-09T03:41:45.730Z,101905.81
2022-08-09T03:42:10.130Z,101905.81
2022-08-09T03:42:32.188Z,101908.50
2022-08-09T03:42:55.554Z,101913.13
2022-08-09T03:43:19.554Z,101903.19
2022-08-09T03:43:42.448Z,101907.84
2022-08-09T03:44:08.978Z,101905.22
2022-08-09T03:44:31.999Z,101913.25
2022-08-09T03:44:53.781Z,101913.31
2022-08-09T03:46:03.219Z,101903.59
2022-08-09T03:46:05.422Z,101915.94
2022-08-09T03:46:41.249Z,101908.72
2022-08-09T03:47:04.488Z,101905.13
2022-08-09T03:47:28.903Z,101909.66
2022-08-09T03:47:58.295Z,101907.84
2022-08-09T03:48:30.578Z,101907.03
2022-08-09T03:48:55.050Z,101907.03
2022-08-09T03:49:19.125Z,101909.88
2022-08-09T03:49:58.416Z,101901.75
2022-08-09T03:50:28.008Z,101906.38
2022-08-09T03:50:54.967Z,101910.13
2022-08-09T03:51:57.432Z,101902.00
2022-08-09T03:52:04.434Z,101908.28
2022-08-09T03:52:28.849Z,101909.06
2022-08-09T03:52:51.841Z,101911.00
2022-08-09T03:53:15.191Z,101906.44
2022-08-09T03:53:39.096Z,101907.41
2022-08-09T03:54:01.729Z,101913.69
2022-08-09T03:54:29.976Z,101911.78
2022-08-09T03:54:56.646Z,101921.66
2022-08-09T03:55:19.752Z,101916.13
2022-08-09T03:55:44.045Z,101917.00
2022-08-09T03:56:07.020Z,101918.81
2022-08-09T03:56:28.904Z,101908.53
2022-08-09T03:56:52.229Z,101923.28
2022-08-09T03:57:20.486Z,101923.28
2022-08-09T03:57:44.607Z,101925.97
2022-08-09T03:58:27.059Z,101918.75
2022-08-09T03:58:50.209Z,101918.75
2022-08-09T03:59:13.647Z,101922.41
2022-08-09T03:59:52.928Z,101921.53
2022-08-09T04:00:18.214Z,101923.47
2022-08-09T04:00:41.768Z,101928.00
2022-08-09T04:01:03.895Z,101918.34
2022-08-09T04:01:28.081Z,101924.44
2022-08-09T04:01:50.960Z,101926.25
2022-08-09T04:02:14.383Z,101928.88
2022-08-09T04:02:37.525Z,101921.72
2022-08-09T04:03:08.345Z,101930.63
2022-08-09T04:03:45.802Z,101921.72
2022-08-09T04:04:14.836Z,101920.78
2022-08-09T04:04:38.992Z,101932.56
2022-08-09T04:05:06.479Z,101936.13
2022-08-09T04:05:40.545Z,101923.66
2022-08-09T04:06:04.637Z,101927.41
2022-08-09T04:06:26.953Z,101930.13
2022-08-09T04:06:50.009Z,101926.53
2022-08-09T04:07:11.885Z,101929.31
2022-08-09T04:07:53.229Z,101924.00
2022-08-09T04:08:16.779Z,101933.16
2022-08-09T04:08:38.791Z,101929.59
2022-08-09T04:09:03.469Z,101927.84
2022-08-09T04:09:47.676Z,101929.59
2022-08-09T04:10:12.007Z,101930.38
2022-08-09T04:10:33.853Z,101930.38
2022-08-09T04:10:55.802Z,101931.25
2022-08-09T04:11:24.303Z,101926.00
2022-08-09T04:11:59.374Z,101927.75
2022-08-09T04:12:40.072Z,101933.94
2022-08-09T04:13:09.444Z,101937.69
2022-08-09T04:14:36.766Z,101928.81
2022-08-09T04:14:54.298Z,101929.69
2022-08-09T04:15:02.085Z,101926.28
2022-08-09T04:16:17.219Z,101936.81
2022-08-09T04:16:19.509Z,101926.13
2022-08-09T04:16:42.764Z,101936.94
2022-08-09T04:17:05.473Z,101937.91
2022-08-09T04:17:27.191Z,101928.97
2022-08-09T04:17:51.312Z,101931.69
2022-08-09T04:18:18.024Z,101930.81
2022-08-09T04:18:41.733Z,101937.09
2022-08-09T04:19:03.444Z,101934.50
2022-08-09T04:19:51.254Z,101935.38
2022-08-09T04:20:16.806Z,101934.59
2022-08-09T04:20:38.604Z,101937.31
2022-08-09T04:21:01.616Z,101940.00
2022-08-09T04:21:25.604Z,101933.63
2022-08-09T04:21:47.301Z,101935.47
2022-08-09T04:22:11.901Z,101933.72
2022-08-09T04:22:35.385Z,101938.16
2022-08-09T04:23:03.892Z,101934.59
2022-08-09T04:23:32.213Z,101937.38
2022-08-09T04:23:57.576Z,101938.34
2022-08-09T04:24:20.909Z,101941.16
2022-08-09T04:24:48.529Z,101939.50
2022-08-09T04:25:10.506Z,101942.19
2022-08-09T04:25:32.803Z,101936.78
2022-08-09T04:25:57.293Z,101940.38
2022-08-09T04:26:18.959Z,101941.31
2022-08-09T04:26:45.109Z,101934.19
2022-08-09T04:27:06.949Z,101945.00
2022-08-09T04:27:30.735Z,101938.88
2022-08-09T04:28:02.530Z,101943.06
2022-08-09T04:28:33.042Z,101943.94
2022-08-09T04:29:03.706Z,101944.72
2022-08-09T04:29:32.599Z,101951.03
2022-08-09T04:29:54.516Z,101944.63
2022-08-09T04:30:20.665Z,101949.16
2022-08-09T04:30:45.067Z,101949.06
2022-08-09T04:31:09.175Z,101945.50
2022-08-09T04:31:37.691Z,101947.25
2022-08-09T04:32:09.204Z,101948.91
2022-08-09T04:32:37.212Z,101939.91
2022-08-09T04:33:00.339Z,101943.50
2022-08-09T04:33:22.964Z,101946.22
2022-08-09T04:33:56.579Z,101945.34
2022-08-09T04:34:30.687Z,101946.38
2022-08-09T04:34:54.437Z,101943.66
2022-08-09T04:35:21.608Z,101948.19
2022-08-09T04:35:44.646Z,101947.31
2022-08-09T04:36:06.891Z,101945.50
2022-08-09T04:36:30.722Z,101950.03
2022-08-09T04:36:52.566Z,101949.16
2022-08-09T04:37:16.027Z,101951.03
2022-08-09T04:37:45.538Z,101945.59
2022-08-09T04:38:08.295Z,101943.84
2022-08-09T04:38:30.934Z,101953.72
2022-08-09T04:38:56.499Z,101947.44
2022-08-09T04:39:18.229Z,101946.56
2022-08-09T04:39:41.008Z,101951.97
2022-08-09T04:40:03.268Z,101945.78
2022-08-09T04:40:46.323Z,101947.59
2022-08-09T04:41:09.812Z,101946.56
2022-08-09T04:41:43.464Z,101946.44
2022-08-09T04:42:09.289Z,101955.34
2022-08-09T04:42:31.722Z,101949.06
2022-08-09T04:42:57.178Z,101953.44
2022-08-09T04:43:20.224Z,101951.63
2022-08-09T04:43:53.906Z,101945.22
2022-08-09T04:44:27.468Z,101954.22
2022-08-09T04:44:49.591Z,101958.66
2022-08-09T04:45:16.411Z,101947.75
2022-08-09T04:45:54.045Z,101951.41
2022-08-09T04:46:36.659Z,101951.63
2022-08-09T04:47:04.528Z,101957.03
2022-08-09T04:47:45.123Z,101957.03
2022-08-09T04:48:12.608Z,101963.28
2022-08-09T04:48:35.221Z,101956.03
2022-08-09T04:48:57.615Z,101956.03
2022-08-09T04:49:22.202Z,101953.44
2022-08-09T04:50:02.941Z,101958.94
2022-08-09T04:50:24.600Z,101959.63
2022-08-09T04:50:55.486Z,101961.38
2022-08-09T04:51:19.152Z,101954.13
2022-08-09T04:51:42.931Z,101959.47
2022-08-09T04:52:05.219Z,101960.41
2022-08-09T04:52:29.511Z,101960.28
2022-08-09T04:52:52.144Z,101955.00
2022-08-09T04:53:15.376Z,101961.28
2022-08-09T04:53:37.612Z,101957.50
2022-08-09T04:53:59.453Z,101962.03
2022-08-09T04:54:21.119Z,101963.00
2022-08-09T04:54:44.880Z,101960.28
2022-08-09T04:55:13.174Z,101963.00
2022-08-09T04:55:41.072Z,101959.47
2022-08-09T04:56:14.419Z,101964.88
2022-08-09T04:56:42.665Z,101956.75
2022-08-09T04:57:05.509Z,101947.16
2022-08-09T04:57:58.481Z,101963.72
2022-08-09T04:58:14.451Z,101959.19
2022-08-09T04:58:36.224Z,101961.88
2022-08-09T04:58:58.026Z,101961.00
2022-08-09T04:59:21.104Z,101961.97
2022-08-09T04:59:45.753Z,101958.38
2022-08-09T05:00:14.162Z,101964.75
2022-08-09T05:00:38.467Z,101963.00
2022-08-09T05:01:05.480Z,101965.63
2022-08-09T05:01:39.195Z,101967.44
2022-08-09T05:02:02.878Z,101967.44
2022-08-09T05:02:27.199Z,101943.59
2022-08-09T05:02:52.626Z,101963.59
2022-08-09T05:03:40.524Z,101974.28
2022-08-09T05:03:58.755Z,101961.53
2022-08-09T05:04:30.943Z,101974.00
2022-08-09T05:04:55.494Z,101968.53
2022-08-09T05:05:18.895Z,101964.75
2022-08-09T05:06:06.603Z,101958.38
2022-08-09T05:06:35.311Z,101963.78
2022-08-09T05:06:58.340Z,101968.91
2022-08-09T05:07:20.192Z,101927.94
2022-08-09T05:07:42.957Z,101966.13
2022-08-09T05:08:08.291Z,101965.34
2022-08-09T05:08:30.061Z,101972.56
2022-08-09T05:08:51.770Z,101964.53
2022-08-09T05:09:14.474Z,101969.88
2022-08-09T05:09:45.309Z,101955.88
2022-08-09T05:10:13.014Z,101971.41
2022-08-09T05:10:36.770Z,101916.44
2022-08-09T05:10:58.727Z,101973.16
2022-08-09T05:11:26.232Z,101968.63
2022-08-09T05:11:53.915Z,101955.38
2022-08-09T05:12:21.201Z,101962.19
2022-08-09T05:12:45.116Z,101959.56
2022-08-09T05:13:07.130Z,101966.72
2022-08-09T05:13:33.908Z,101969.50
2022-08-09T05:14:00.318Z,101965.06
2022-08-09T05:14:22.053Z,101959.63
2022-08-09T05:14:50.926Z,101964.88
2022-08-09T05:15:38.310Z,101964.09
2022-08-09T05:15:56.526Z,101965.84
2022-08-09T05:16:19.720Z,101967.75
2022-08-09T05:16:58.967Z,101963.22
2022-08-09T05:18:39.482Z,101963.31
2022-08-09T05:18:39.731Z,101960.59
2022-08-09T05:18:57.743Z,101963.13
2022-08-09T05:19:24.378Z,101966.72
2022-08-09T05:19:48.917Z,101968.56
2022-08-09T05:20:19.077Z,101957.72
2022-08-09T05:20:40.816Z,101967.59
2022-08-09T05:21:03.270Z,101964.88
2022-08-09T05:21:46.716Z,101963.03
2022-08-09T05:22:33.513Z,101967.41
2022-08-09T05:23:53.964Z,101968.25
2022-08-09T05:23:55.528Z,101964.59
2022-08-09T05:24:21.142Z,101965.34
2022-08-09T05:24:47.627Z,101964.50
2022-08-09T05:25:09.731Z,101966.31
2022-08-09T05:25:32.789Z,101966.22
2022-08-09T05:25:54.466Z,101952.69
2022-08-09T05:26:35.907Z,101962.28
2022-08-09T05:27:00.246Z,101962.94
2022-08-09T05:27:22.085Z,101964.69
2022-08-09T05:27:45.486Z,101966.63
2022-08-09T05:28:08.823Z,101959.38
2022-08-09T05:28:31.658Z,101966.53
2022-08-09T05:28:53.966Z,101965.66
2022-08-09T05:29:21.571Z,101962.94
2022-08-09T05:29:44.338Z,101965.66